createdAt,value
2023-05-02T00:02:22.440Z,6.29
2023-05-02T00:05:08.261Z,6.19
2023-05-02T00:07:53.847Z,6.16
2023-05-02T00:10:39.541Z,6.35
2023-05-02T00:13:24.926Z,6.55
2023-05-02T00:16:11.351Z,6.87
2023-05-02T00:18:56.658Z,7.13
2023-05-02T00:21:42.199Z,7.36
2023-05-02T00:24:27.679Z,7.59
2023-05-02T00:27:14.378Z,7.80
2023-05-02T00:30:00.886Z,7.92
2023-05-02T00:32:46.826Z,8.00
2023-05-02T00:35:33.580Z,8.07
2023-05-02T00:38:19.040Z,8.15
2023-05-02T00:41:05.779Z,8.22
2023-05-02T00:43:51.147Z,8.31
2023-05-02T00:46:36.635Z,8.38
2023-05-02T00:49:22.543Z,8.50
2023-05-02T00:52:08.973Z,8.57
2023-05-02T00:54:54.726Z,8.62
2023-05-02T00:57:40.893Z,8.69
2023-05-02T01:00:37.108Z,8.77
2023-05-02T01:03:59.765Z,8.80
2023-05-02T01:07:07.031Z,8.83
2023-05-02T01:10:07.857Z,8.89
2023-05-02T01:12:53.494Z,8.92
2023-05-02T01:15:42.199Z,8.94
2023-05-02T01:18:32.784Z,8.97
2023-05-02T01:21:18.732Z,9.00
2023-05-02T01:24:16.499Z,9.01
2023-05-02T01:27:14.424Z,9.03
2023-05-02T01:30:02.590Z,9.05
2023-05-02T01:32:52.584Z,9.08
2023-05-02T01:35:38.924Z,9.09
2023-05-02T01:38:25.509Z,9.09
2023-05-02T01:41:13.192Z,9.11
2023-05-02T01:44:00.121Z,9.13
2023-05-02T01:46:46.621Z,9.14
2023-05-02T01:49:34.950Z,9.16
2023-05-02T01:52:22.551Z,9.16
2023-05-02T01:55:13.069Z,9.16
2023-05-02T01:57:58.830Z,9.18
2023-05-02T02:00:45.935Z,9.18
2023-05-02T02:03:32.138Z,9.20
2023-05-02T02:06:19.879Z,9.16
2023-05-02T02:09:06.244Z,9.18
2023-05-02T02:12:06.244Z,9.17
2023-05-02T02:15:00.102Z,9.17
2023-05-02T02:17:55.486Z,9.17
2023-05-02T02:20:46.495Z,9.18
2023-05-02T02:23:34.827Z,9.17
2023-05-02T02:26:22.427Z,9.17
2023-05-02T02:29:07.656Z,9.14
2023-05-02T02:31:53.124Z,9.14
2023-05-02T02:34:38.332Z,9.14
2023-05-02T02:37:31.226Z,9.11
2023-05-02T02:40:28.754Z,9.09
2023-05-02T02:43:53.860Z,9.08
2023-05-02T02:46:42.458Z,9.07
2023-05-02T02:49:44.551Z,9.06
2023-05-02T02:52:44.238Z,9.07
2023-05-02T02:55:55.946Z,9.06
2023-05-02T02:58:57.314Z,9.06
2023-05-02T03:01:47.128Z,9.02
2023-05-02T03:04:35.239Z,9.01
2023-05-02T03:07:22.288Z,9.02
2023-05-02T03:10:09.279Z,8.99
2023-05-02T03:12:56.410Z,8.95
2023-05-02T03:15:52.507Z,8.87
2023-05-02T03:18:43.491Z,8.78
2023-05-02T03:21:31.757Z,8.68
2023-05-02T03:24:23.338Z,8.59
2023-05-02T03:27:11.480Z,8.50
2023-05-02T03:30:01.765Z,8.44
2023-05-02T03:32:48.666Z,8.38
2023-05-02T03:35:34.985Z,8.33
2023-05-02T03:38:21.914Z,8.29
2023-05-02T03:41:09.095Z,8.26
2023-05-02T03:43:54.394Z,8.27
2023-05-02T03:46:42.208Z,8.27
2023-05-02T03:49:30.638Z,8.31
2023-05-02T03:52:16.045Z,8.33
2023-05-02T03:55:02.701Z,8.35
2023-05-02T03:57:49.414Z,8.38
2023-05-02T04:00:35.136Z,8.39
2023-05-02T04:03:24.424Z,8.41
2023-05-02T04:06:10.979Z,8.44
2023-05-02T04:08:58.639Z,8.49
2023-05-02T04:11:49.355Z,8.54
2023-05-02T04:14:35.154Z,8.57
2023-05-02T04:17:21.876Z,8.60
2023-05-02T04:20:09.471Z,8.61
2023-05-02T04:22:56.975Z,8.65
2023-05-02T04:25:50.612Z,8.67
2023-05-02T04:28:36.655Z,8.68
2023-05-02T04:31:23.058Z,8.72
2023-05-02T04:34:09.531Z,8.76
2023-05-02T04:37:01.691Z,8.79
2023-05-02T04:39:47.522Z,8.81
2023-05-02T04:42:43.136Z,8.84
2023-05-02T04:45:39.064Z,8.88
2023-05-02T04:48:30.388Z,8.90
2023-05-02T04:51:16.906Z,8.93
2023-05-02T04:54:05.664Z,8.94
2023-05-02T04:56:51.016Z,8.96
2023-05-02T04:59:38.639Z,9.00
2023-05-02T05:02:26.655Z,9.00
2023-05-02T05:05:14.041Z,9.03
2023-05-02T05:07:59.318Z,9.07
2023-05-02T05:10:48.664Z,9.09
2023-05-02T05:13:35.104Z,9.09
2023-05-02T05:16:20.969Z,9.09
2023-05-02T05:19:07.094Z,9.13
2023-05-02T05:21:53.280Z,9.14
2023-05-02T05:24:39.983Z,9.17
2023-05-02T05:27:25.351Z,9.18
2023-05-02T05:30:11.130Z,9.21
2023-05-02T05:32:57.013Z,9.22
2023-05-02T05:35:42.386Z,9.27
2023-05-02T05:38:28.313Z,9.29
2023-05-02T05:41:13.949Z,9.31
2023-05-02T05:44:05.395Z,9.34
2023-05-02T05:46:50.933Z,9.36
2023-05-02T05:49:39.153Z,9.37
2023-05-02T05:52:27.708Z,9.38
2023-05-02T05:55:14.466Z,9.38
2023-05-02T05:58:00.424Z,9.39
2023-05-02T06:00:46.175Z,9.40
2023-05-02T06:03:32.395Z,9.42
2023-05-02T06:06:18.661Z,9.44
2023-05-02T06:09:04.425Z,9.45
2023-05-02T06:11:51.882Z,9.50
2023-05-02T06:14:37.716Z,9.55
2023-05-02T06:17:23.092Z,9.64
2023-05-02T06:20:09.398Z,9.72
2023-05-02T06:22:54.906Z,9.78
2023-05-02T06:25:40.478Z,9.86
2023-05-02T06:28:26.312Z,9.93
2023-05-02T06:31:12.063Z,9.96
2023-05-02T06:33:57.928Z,10.00
2023-05-02T06:36:43.465Z,10.07
2023-05-02T06:39:28.873Z,10.15
2023-05-02T06:42:14.191Z,10.25
2023-05-02T06:44:59.609Z,10.33
2023-05-02T06:47:45.160Z,10.43
2023-05-02T06:50:30.806Z,10.52
2023-05-02T06:53:16.428Z,10.65
2023-05-02T06:56:02.191Z,10.71
2023-05-02T06:58:47.594Z,10.73
2023-05-02T07:01:32.854Z,10.76
2023-05-02T07:04:18.669Z,10.85
2023-05-02T07:07:04.263Z,10.98
2023-05-02T07:09:49.858Z,11.06
2023-05-02T07:12:35.682Z,11.13
2023-05-02T07:15:20.967Z,11.22
2023-05-02T07:18:06.607Z,11.33
2023-05-02T07:20:52.265Z,11.42
2023-05-02T07:23:37.848Z,11.51
2023-05-02T07:26:24.378Z,11.50
2023-05-02T07:29:09.911Z,11.53
2023-05-02T07:31:55.826Z,11.57
2023-05-02T07:34:41.601Z,11.69
2023-05-02T07:37:27.490Z,11.69
2023-05-02T07:40:13.436Z,11.71
2023-05-02T07:43:01.715Z,11.73
2023-05-02T07:45:47.147Z,11.69
2023-05-02T07:48:32.478Z,11.68
2023-05-02T07:51:20.533Z,11.69
2023-05-02T07:54:19.637Z,11.64
2023-05-02T07:57:08.407Z,11.59
2023-05-02T07:59:53.934Z,11.59
2023-05-02T08:02:39.494Z,11.61
2023-05-02T08:05:25.141Z,11.62
2023-05-02T08:08:10.291Z,11.72
2023-05-02T08:10:55.655Z,11.86
2023-05-02T08:13:41.071Z,11.97
2023-05-02T08:16:26.585Z,12.03
2023-05-02T08:19:11.954Z,12.11
2023-05-02T08:21:57.255Z,12.23
2023-05-02T08:24:42.753Z,12.27
2023-05-02T08:27:28.313Z,12.31
2023-05-02T08:30:14.334Z,12.25
2023-05-02T08:32:59.894Z,12.39
2023-05-02T08:35:45.241Z,12.49
2023-05-02T08:38:30.824Z,12.52
2023-05-02T08:41:18.248Z,12.52
2023-05-02T08:44:04.304Z,12.50
2023-05-02T08:46:51.153Z,12.44
2023-05-02T08:49:38.594Z,12.38
2023-05-02T08:52:24.938Z,12.29
2023-05-02T08:55:12.599Z,12.26
2023-05-02T08:57:58.806Z,12.28
2023-05-02T09:00:48.664Z,12.36
2023-05-02T09:03:36.118Z,12.51
2023-05-02T09:06:22.913Z,12.63
2023-05-02T09:09:08.702Z,12.74
2023-05-02T09:11:54.314Z,12.83
2023-05-02T09:14:40.285Z,12.86
2023-05-02T09:17:25.977Z,12.96
2023-05-02T09:20:13.189Z,13.00
2023-05-02T09:22:58.671Z,12.99
2023-05-02T09:25:44.210Z,13.03
2023-05-02T09:28:49.393Z,13.16
2023-05-02T09:34:27.989Z,13.34
2023-05-02T09:37:36.181Z,13.33
2023-05-02T09:40:23.317Z,13.25
2023-05-02T09:43:16.795Z,13.43
2023-05-02T09:46:07.391Z,13.59
2023-05-02T09:48:55.974Z,13.76
2023-05-02T09:51:44.039Z,14.06
2023-05-02T09:54:36.975Z,14.33
2023-05-02T09:57:23.435Z,14.37
2023-05-02T10:00:09.681Z,14.39
2023-05-02T10:02:58.279Z,14.39
2023-05-02T10:05:46.207Z,14.57
2023-05-02T10:08:33.673Z,14.75
2023-05-02T10:11:19.285Z,14.98
2023-05-02T10:14:09.345Z,15.04
2023-05-02T10:17:02.307Z,15.21
2023-05-02T10:20:07.841Z,15.21
2023-05-02T10:22:54.628Z,15.11
2023-05-02T10:25:40.346Z,15.17
2023-05-02T10:28:27.340Z,15.26
2023-05-02T10:31:17.733Z,15.38
2023-05-02T10:34:04.014Z,15.49
2023-05-02T10:36:49.697Z,15.61
2023-05-02T10:39:35.271Z,15.86
2023-05-02T10:42:21.112Z,16.09
2023-05-02T10:45:30.493Z,16.25
2023-05-02T10:48:20.905Z,16.34
2023-05-02T10:51:06.592Z,16.37
2023-05-02T10:53:52.315Z,16.46
2023-05-02T10:57:03.472Z,16.56
2023-05-02T10:59:49.377Z,16.55
2023-05-02T11:02:36.037Z,16.67
2023-05-02T11:05:22.957Z,16.82
2023-05-02T11:08:20.197Z,16.92
2023-05-02T11:11:45.015Z,16.92
2023-05-02T11:14:39.851Z,16.89
2023-05-02T11:17:25.974Z,16.78
2023-05-02T11:20:14.556Z,16.65
2023-05-02T11:23:26.067Z,16.47
2023-05-02T11:26:22.457Z,16.20
2023-05-02T11:29:08.118Z,16.01
2023-05-02T11:31:55.088Z,15.90
2023-05-02T11:34:42.697Z,15.76
2023-05-02T11:37:28.812Z,15.68
2023-05-02T11:40:15.708Z,15.47
2023-05-02T11:43:12.021Z,15.41
2023-05-02T11:46:00.135Z,15.16
2023-05-02T11:48:45.937Z,15.11
2023-05-02T11:51:31.779Z,15.18
2023-05-02T11:54:21.940Z,15.33
2023-05-02T11:57:07.560Z,15.61
2023-05-02T11:59:54.626Z,16.15
2023-05-02T12:02:44.282Z,16.70
2023-05-02T12:05:30.473Z,17.24
2023-05-02T12:08:28.719Z,17.60
2023-05-02T12:11:18.277Z,17.95
2023-05-02T12:14:04.432Z,17.97
2023-05-02T12:16:49.798Z,17.99
2023-05-02T12:19:37.209Z,18.00
2023-05-02T12:22:25.576Z,17.87
2023-05-02T12:25:10.927Z,17.75
2023-05-02T12:28:03.186Z,17.69
2023-05-02T12:30:50.566Z,17.83
2023-05-02T12:33:43.488Z,17.87
2023-05-02T12:36:29.570Z,18.12
2023-05-02T12:39:15.304Z,18.54
2023-05-02T12:42:00.995Z,18.95
2023-05-02T12:44:48.193Z,19.14
2023-05-02T12:47:46.441Z,19.14
2023-05-02T12:50:36.962Z,18.88
2023-05-02T12:53:45.935Z,19.05
2023-05-02T12:56:39.463Z,19.44
2023-05-02T12:59:31.009Z,19.91
2023-05-02T13:02:16.750Z,20.30
2023-05-02T13:05:02.063Z,20.55
2023-05-02T13:07:47.438Z,20.55
2023-05-02T13:10:33.268Z,20.53
2023-05-02T13:13:18.627Z,20.57
2023-05-02T13:16:04.150Z,20.24
2023-05-02T13:18:49.417Z,20.08
2023-05-02T13:21:34.860Z,20.03
2023-05-02T13:24:20.157Z,19.97
2023-05-02T13:27:05.724Z,19.72
2023-05-02T13:29:51.943Z,19.36
2023-05-02T13:32:37.525Z,19.15
2023-05-02T13:35:23.301Z,19.26
2023-05-02T13:38:08.812Z,19.31
2023-05-02T13:40:54.734Z,19.36
2023-05-02T13:43:40.820Z,19.25
2023-05-02T13:46:26.899Z,19.10
2023-05-02T13:49:12.557Z,18.98
2023-05-02T13:51:57.922Z,19.00
2023-05-02T13:54:43.318Z,19.12
2023-05-02T13:57:28.808Z,19.24
2023-05-02T14:00:14.931Z,19.29
2023-05-02T14:03:00.748Z,19.15
2023-05-02T14:05:46.538Z,19.00
2023-05-02T14:08:31.784Z,18.92
2023-05-02T14:11:17.727Z,18.82
2023-05-02T14:14:03.081Z,18.82
2023-05-02T14:16:50.198Z,18.97
2023-05-02T14:19:36.443Z,19.17
2023-05-02T14:22:22.113Z,19.49
2023-05-02T14:25:08.205Z,19.83
2023-05-02T14:27:53.828Z,20.01
2023-05-02T14:30:39.218Z,20.19
2023-05-02T14:33:24.505Z,20.38
2023-05-02T14:36:09.723Z,20.39
2023-05-02T14:38:55.111Z,20.53
2023-05-02T14:41:40.417Z,20.47
2023-05-02T14:44:25.919Z,20.65
2023-05-02T14:47:11.291Z,20.71
2023-05-02T14:49:56.722Z,20.53
2023-05-02T14:52:43.175Z,20.30
2023-05-02T14:55:28.726Z,20.10
2023-05-02T14:58:20.524Z,20.19
2023-05-02T15:01:06.489Z,20.27
2023-05-02T15:04:05.875Z,20.17
2023-05-02T15:06:54.605Z,20.03
2023-05-02T15:09:40.978Z,19.74
2023-05-02T15:12:26.885Z,19.55
2023-05-02T15:15:12.433Z,19.31
2023-05-02T15:17:57.995Z,19.18
2023-05-02T15:20:44.671Z,19.08
2023-05-02T15:23:30.332Z,18.92
2023-05-02T15:26:15.861Z,18.94
2023-05-02T15:29:01.109Z,19.03
2023-05-02T15:31:46.840Z,19.02
2023-05-02T15:34:32.179Z,19.04
2023-05-02T15:37:17.725Z,19.04
2023-05-02T15:40:04.450Z,19.14
2023-05-02T15:42:50.577Z,19.15
2023-05-02T15:45:36.340Z,19.20
2023-05-02T15:48:23.273Z,19.04
2023-05-02T15:51:10.795Z,18.85
2023-05-02T15:53:56.249Z,18.72
2023-05-02T15:56:41.687Z,18.69
2023-05-02T15:59:27.272Z,18.73
2023-05-02T16:02:12.862Z,18.63
2023-05-02T16:04:58.563Z,18.54
2023-05-02T16:07:44.115Z,18.45
2023-05-02T16:10:29.983Z,18.48
2023-05-02T16:13:15.370Z,18.53
2023-05-02T16:16:01.159Z,18.47
2023-05-02T16:18:46.529Z,18.41
2023-05-02T16:21:31.820Z,18.38
2023-05-02T16:24:17.093Z,18.39
2023-05-02T16:27:02.490Z,18.45
2023-05-02T16:29:48.576Z,18.48
2023-05-02T16:32:34.295Z,18.47
2023-05-02T16:35:20.085Z,18.42
2023-05-02T16:38:06.100Z,18.38
2023-05-02T16:40:51.919Z,18.38
2023-05-02T16:43:37.934Z,18.33
2023-05-02T16:46:23.486Z,18.29
2023-05-02T16:49:08.739Z,18.24
2023-05-02T16:51:55.001Z,18.26
2023-05-02T16:54:40.345Z,18.25
2023-05-02T16:57:25.918Z,18.18
2023-05-02T17:00:12.516Z,18.25
2023-05-02T17:02:58.149Z,18.34
2023-05-02T17:05:43.780Z,18.35
2023-05-02T17:08:29.336Z,18.40
2023-05-02T17:11:15.034Z,18.47
2023-05-02T17:14:00.675Z,18.57
2023-05-02T17:16:46.233Z,18.65
2023-05-02T17:19:31.796Z,18.80
2023-05-02T17:22:19.005Z,18.94
2023-05-02T17:25:06.362Z,19.14
2023-05-02T17:27:51.997Z,19.20
2023-05-02T17:30:37.822Z,19.07
2023-05-02T17:33:23.790Z,18.82
2023-05-02T17:36:09.401Z,18.62
2023-05-02T17:38:55.008Z,18.46
2023-05-02T17:41:40.537Z,18.30
2023-05-02T17:44:26.148Z,18.09
2023-05-02T17:47:12.169Z,17.76
2023-05-02T17:49:57.783Z,17.51
2023-05-02T17:52:43.073Z,17.19
2023-05-02T17:55:28.582Z,16.85
2023-05-02T17:58:14.763Z,16.42
2023-05-02T18:01:07.935Z,15.95
2023-05-02T18:03:54.457Z,15.65
2023-05-02T18:06:40.171Z,15.38
2023-05-02T18:09:25.831Z,15.22
2023-05-02T18:12:11.357Z,15.08
2023-05-02T18:14:56.981Z,14.99
2023-05-02T18:17:42.673Z,14.85
2023-05-02T18:20:28.549Z,14.64
2023-05-02T18:23:13.913Z,14.48
2023-05-02T18:25:59.307Z,14.30
2023-05-02T18:28:46.766Z,14.18
2023-05-02T18:31:32.502Z,14.13
2023-05-02T18:34:19.263Z,14.06
2023-05-02T18:37:04.913Z,14.01
2023-05-02T18:39:50.547Z,13.93
2023-05-02T18:42:36.404Z,13.84
2023-05-02T18:45:21.927Z,13.70
2023-05-02T18:48:07.547Z,13.60
2023-05-02T18:50:56.859Z,13.47
2023-05-02T18:53:42.098Z,13.37
2023-05-02T18:56:28.306Z,13.33
2023-05-02T18:59:13.772Z,13.29
2023-05-02T19:01:59.869Z,13.25
2023-05-02T19:04:45.790Z,13.17
2023-05-02T19:07:31.196Z,13.11
2023-05-02T19:10:16.556Z,13.01
2023-05-02T19:13:02.412Z,12.92
2023-05-02T19:15:47.755Z,12.80
2023-05-02T19:18:33.067Z,12.66
2023-05-02T19:21:18.272Z,12.52
2023-05-02T19:24:04.067Z,12.40
2023-05-02T19:26:49.604Z,12.26
2023-05-02T19:29:35.060Z,12.11
2023-05-02T19:32:24.023Z,11.96
2023-05-02T19:35:10.004Z,11.80
2023-05-02T19:37:55.747Z,11.70
2023-05-02T19:40:41.450Z,11.57
2023-05-02T19:43:26.940Z,11.44
2023-05-02T19:46:14.144Z,11.35
2023-05-02T19:48:59.869Z,11.25
2023-05-02T19:51:45.254Z,11.17
2023-05-02T19:54:31.106Z,11.09
2023-05-02T19:57:17.952Z,11.04
2023-05-02T20:00:04.948Z,11.00
2023-05-02T20:02:58.077Z,10.97
2023-05-02T20:05:43.754Z,10.93
2023-05-02T20:08:31.455Z,10.89
2023-05-02T20:11:17.129Z,10.86
2023-05-02T20:14:03.158Z,10.83
2023-05-02T20:16:48.479Z,10.79
2023-05-02T20:19:33.934Z,10.75
2023-05-02T20:22:19.509Z,10.72
2023-05-02T20:25:05.554Z,10.68
2023-05-02T20:27:51.853Z,10.66
2023-05-02T20:30:39.217Z,10.62
2023-05-02T20:33:27.586Z,10.61
2023-05-02T20:36:19.209Z,10.57
2023-05-02T20:39:07.474Z,10.53
2023-05-02T20:41:53.218Z,10.49
2023-05-02T20:44:39.226Z,10.47
2023-05-02T20:47:27.181Z,10.47
2023-05-02T20:50:12.925Z,10.47
2023-05-02T20:52:58.786Z,10.51
2023-05-02T20:55:44.453Z,10.54
2023-05-02T20:58:29.917Z,10.57
2023-05-02T21:01:15.520Z,10.61
2023-05-02T21:04:01.150Z,10.64
2023-05-02T21:06:47.733Z,10.63
2023-05-02T21:09:33.785Z,10.64
2023-05-02T21:12:19.624Z,10.67
2023-05-02T21:15:05.856Z,10.66
2023-05-02T21:18:00.266Z,10.64
2023-05-02T21:20:48.418Z,10.60
2023-05-02T21:23:34.016Z,10.57
2023-05-02T21:26:19.451Z,10.57
2023-05-02T21:29:05.706Z,10.55
2023-05-02T21:31:54.006Z,10.55
2023-05-02T21:34:40.167Z,10.52
2023-05-02T21:37:25.611Z,10.48
2023-05-02T21:40:11.863Z,10.43
2023-05-02T21:42:57.237Z,10.40
2023-05-02T21:45:47.189Z,10.39
2023-05-02T21:48:34.059Z,10.36
2023-05-02T21:51:19.687Z,10.32
2023-05-02T21:54:05.318Z,10.29
2023-05-02T21:56:50.793Z,10.26
2023-05-02T21:59:36.102Z,10.22
2023-05-02T22:02:21.744Z,10.20
2023-05-02T22:05:08.503Z,10.18
2023-05-02T22:07:54.071Z,10.14
2023-05-02T22:10:44.502Z,10.09
2023-05-02T22:13:30.132Z,10.05
2023-05-02T22:16:15.618Z,10.00
2023-05-02T22:19:01.641Z,9.97
2023-05-02T22:21:47.364Z,9.93
2023-05-02T22:24:33.433Z,9.93
2023-05-02T22:27:18.978Z,9.93
2023-05-02T22:30:05.310Z,9.90
2023-05-02T22:32:51.340Z,9.87
2023-05-02T22:35:37.784Z,9.84
2023-05-02T22:38:23.234Z,9.83
2023-05-02T22:41:08.923Z,9.83
2023-05-02T22:43:54.512Z,9.84
2023-05-02T22:46:39.992Z,9.82
2023-05-02T22:49:25.225Z,9.83
2023-05-02T22:52:11.271Z,9.81
2023-05-02T22:54:57.633Z,9.77
2023-05-02T22:57:43.523Z,9.74
2023-05-02T23:00:28.931Z,9.71
2023-05-02T23:03:14.481Z,9.69
2023-05-02T23:06:00.185Z,9.62
2023-05-02T23:08:45.977Z,9.56
2023-05-02T23:11:31.255Z,9.58
2023-05-02T23:14:16.627Z,9.59
2023-05-02T23:17:03.506Z,9.56
2023-05-02T23:19:50.016Z,9.48
2023-05-02T23:22:37.128Z,9.44
2023-05-02T23:25:24.047Z,9.39
2023-05-02T23:28:09.676Z,9.37
2023-05-02T23:30:55.104Z,9.34
2023-05-02T23:33:40.501Z,9.31
2023-05-02T23:36:27.217Z,9.30
2023-05-02T23:39:13.560Z,9.33
2023-05-02T23:41:59.060Z,9.32
2023-05-02T23:44:44.698Z,9.29
2023-05-02T23:47:30.342Z,9.24
2023-05-02T23:50:15.852Z,9.25
2023-05-02T23:53:01.694Z,9.24
2023-05-02T23:55:47.207Z,9.25
2023-05-02T23:58:32.632Z,9.26
